Time;durP1;ratioP1;P1;durP2;ratioP2;P2;SDS_P1;SDS_P2;PMS_P1;PMS_P2;Temp;Humidity;BMP_temperature;BMP_pressure;BME280_temperature;BME280_humidity;BME280_pressure;Samples;Min_cycle;Max_cycle;Signal;HPM_P1;HPM_P2
2022/03/26 00:00:08;;;;;;;;;;;;;;;;;;5013145;28;20260;-53
2022/03/26 00:02:34;;;;;;;;;;;;;;;;;;5009620;28;20241;-59
2022/03/26 00:05:00;;;;;;;;;;;;;;;;;;5012636;28;20288;-55
2022/03/26 00:07:27;;;;;;;;;;;;;;;;;;5011783;28;20283;-45
2022/03/26 00:09:53;;;;;;;;;;;;;;;;;;5012256;28;20346;-56
2022/03/26 00:12:20;;;;;;;;;;;;;;;;;;5011797;28;19932;-57
2022/03/26 00:14:46;;;;;;;;;;;;;;;;;;5012585;28;19920;-52
2022/03/26 00:17:13;;;;;;;;;;;;;;;;;;5012003;28;20001;-51
2022/03/26 00:19:39;;;;;;;;;;;;;;;;;;5012176;28;20033;-52
2022/03/26 00:22:08;;;;;;;;;;;;;;;;;;5012251;28;19913;-51
2022/03/26 00:24:35;;;;;;;;;;;;;;;;;;5012589;28;19921;-51
2022/03/26 00:27:01;;;;;;;;;;;;;;;;;;5012220;28;19909;-51
2022/03/26 00:29:28;;;;;;;;;;;;;;;;;;5012231;28;19917;-51
2022/03/26 00:31:55;;;;;;;;;;;;;;;;;;5012005;28;20414;-61
2022/03/26 00:34:21;;;;;;;;;;;;;;;;;;5012408;28;19988;-54
2022/03/26 00:36:48;;;;;;;;;;;;;;;;;;5012472;28;19910;-53
2022/03/26 00:39:14;;;;;;;;;;;;;;;;;;5012279;28;19921;-56
2022/03/26 00:41:41;;;;;;;;;;;;;;;;;;5012152;28;19917;-64
2022/03/26 00:44:07;;;;;;;;;;;;;;;;;;5012493;28;20292;-56
2022/03/26 00:46:34;;;;;;;;;;;;;;;;;;5011666;28;19917;-56
2022/03/26 00:49:01;;;;;;;;;;;;;;;;;;5012166;28;20044;-56
2022/03/26 00:51:27;;;;;;;;;;;;;;;;;;5011952;28;20352;-52
2022/03/26 00:53:54;;;;;;;;;;;;;;;;;;5011801;28;20252;-59
2022/03/26 00:56:20;;;;;;;;;;;;;;;;;;5011995;28;19996;-60
2022/03/26 00:58:47;;;;;;;;;;;;;;;;;;5011903;28;19916;-60
2022/03/26 01:01:13;;;;;;;;;;;;;;;;;;5011972;28;20279;-58
2022/03/26 01:03:40;;;;;;;;;;;;;;;;;;5011791;28;19932;-56
2022/03/26 01:06:06;;;;;;;;;;;;;;;;;;5011813;28;19987;-60
2022/03/26 01:08:32;;;;;;;;;;;;;;;;;;5012403;28;20001;-55
2022/03/26 01:10:59;;;;;;;;;;;;;;;;;;5011704;28;19906;-56
2022/03/26 01:13:26;;;;;;;;;;;;;;;;;;5011931;28;19961;-56
2022/03/26 01:15:53;;;;;;;;;;;;;;;;;;5012351;28;19905;-50
2022/03/26 01:18:19;;;;;;;;;;;;;;;;;;5011902;28;19953;-58
2022/03/26 01:20:46;;;;;;;;;;;;;;;;;;5011965;28;19921;-52
2022/03/26 01:23:13;;;;;;;;;;;;;;;;;;5012200;28;19910;-55
2022/03/26 01:25:39;;;;;;;;;;;;;;;;;;5015900;28;19924;-57
2022/03/26 01:28:06;;;;;;;;;;;;;;;;;;5010718;28;20459;-50
2022/03/26 01:30:32;;;;;;;;;;;;;;;;;;5013945;28;19968;-57
2022/03/26 01:32:58;;;;;;;;;;;;;;;;;;5013126;28;19917;-53
2022/03/26 01:35:25;;;;;;;;;;;;;;;;;;5013812;28;19925;-50
2022/03/26 01:37:51;;;;;;;;;;;;;;;;;;5013596;28;20305;-44
2022/03/26 01:40:18;;;;;;;;;;;;;;;;;;4996479;28;19952;-48
2022/03/26 01:42:44;;;;;;;;;;;;;;;;;;5011497;28;19910;-45
2022/03/26 01:45:11;;;;;;;;;;;;;;;;;;5013157;28;19933;-45
2022/03/26 01:47:37;;;;;;;;;;;;;;;;;;5012454;28;19909;-49
2022/03/26 01:50:04;;;;;;;;;;;;;;;;;;5012768;28;19913;-51
2022/03/26 01:52:30;;;;;;;;;;;;;;;;;;5009797;28;19979;-47
2022/03/26 01:54:57;;;;;;;;;;;;;;;;;;5012883;28;19917;-49
2022/03/26 01:57:24;;;;;;;;;;;;;;;;;;4995627;28;19916;-45
2022/03/26 01:59:50;;;;;;;;;;;;;;;;;;5012399;28;19910;-50
2022/03/26 02:02:17;;;;;;;;;;;;;;;;;;5013953;28;19909;-58
2022/03/26 02:04:43;;;;;;;;;;;;;;;;;;5015125;28;20003;-59
2022/03/26 02:07:10;;;;;;;;;;;;;;;;;;5015021;28;20004;-51
2022/03/26 02:09:36;;;;;;;;;;;;;;;;;;5014681;28;19910;-59
2022/03/26 02:12:03;;;;;;;;;;;;;;;;;;5014629;28;19932;-51
2022/03/26 02:14:30;;;;;;;;;;;;;;;;;;5014163;28;20279;-52
2022/03/26 02:16:56;;;;;;;;;;;;;;;;;;5014603;28;19932;-54
2022/03/26 02:19:22;;;;;;;;;;;;;;;;;;5013638;28;19909;-52
2022/03/26 02:21:49;;;;;;;;;;;;;;;;;;5013731;28;19910;-51
2022/03/26 02:24:15;;;;;;;;;;;;;;;;;;5014689;28;20371;-53
2022/03/26 02:26:42;;;;;;;;;;;;;;;;;;5014310;28;19933;-52
2022/03/26 02:29:08;;;;;;;;;;;;;;;;;;5014493;28;19917;-49
2022/03/26 02:31:35;;;;;;;;;;;;;;;;;;5013439;28;19913;-53
2022/03/26 02:34:01;;;;;;;;;;;;;;;;;;5014643;28;19909;-52
2022/03/26 02:36:28;;;;;;;;;;;;;;;;;;5013582;28;20427;-53
2022/03/26 02:38:54;;;;;;;;;;;;;;;;;;5014358;28;19925;-53
2022/03/26 02:41:21;;;;;;;;;;;;;;;;;;5014197;28;19956;-49
2022/03/26 02:43:47;;;;;;;;;;;;;;;;;;4996221;28;19949;-49
2022/03/26 02:46:14;;;;;;;;;;;;;;;;;;5014245;28;19921;-54
2022/03/26 02:48:42;;;;;;;;;;;;;;;;;;5006445;28;19917;-44
2022/03/26 02:51:09;;;;;;;;;;;;;;;;;;5011485;28;20342;-41
2022/03/26 02:53:35;;;;;;;;;;;;;;;;;;5012055;28;19940;-39
2022/03/26 02:56:02;;;;;;;;;;;;;;;;;;5012499;28;19909;-44
2022/03/26 02:58:28;;;;;;;;;;;;;;;;;;5010219;28;19910;-41
2022/03/26 03:00:55;;;;;;;;;;;;;;;;;;5010921;28;19914;-41
2022/03/26 03:03:21;;;;;;;;;;;;;;;;;;5011572;28;19913;-40
2022/03/26 03:05:48;;;;;;;;;;;;;;;;;;5012144;28;20284;-40
2022/03/26 03:08:14;;;;;;;;;;;;;;;;;;5012331;28;19925;-40
2022/03/26 03:10:42;;;;;;;;;;;;;;;;;;5007546;28;20004;-41
2022/03/26 03:13:09;;;;;;;;;;;;;;;;;;5011787;28;19953;-40
2022/03/26 03:15:36;;;;;;;;;;;;;;;;;;5011732;28;19913;-45
2022/03/26 03:18:02;;;;;;;;;;;;;;;;;;5012223;28;19910;-41
2022/03/26 03:20:30;;;;;;;;;;;;;;;;;;5005867;28;20364;-42
2022/03/26 03:22:59;;;;;;;;;;;;;;;;;;5011907;28;19914;-43
2022/03/26 03:25:29;;;;;;;;;;;;;;;;;;5011439;28;20321;-40
2022/03/26 03:27:57;;;;;;;;;;;;;;;;;;5011750;28;19913;-41
2022/03/26 03:30:23;;;;;;;;;;;;;;;;;;4987924;28;20284;-50
2022/03/26 03:32:49;;;;;;;;;;;;;;;;;;5011395;28;20427;-43
2022/03/26 03:35:16;;;;;;;;;;;;;;;;;;5008003;28;20374;-51
2022/03/26 03:37:42;;;;;;;;;;;;;;;;;;5011918;28;19910;-42
2022/03/26 03:40:09;;;;;;;;;;;;;;;;;;5005623;28;19925;-39
2022/03/26 03:42:35;;;;;;;;;;;;;;;;;;5011259;28;20361;-47
2022/03/26 03:45:02;;;;;;;;;;;;;;;;;;5010706;28;20474;-42
2022/03/26 03:47:28;;;;;;;;;;;;;;;;;;5010400;28;19909;-41
2022/03/26 03:49:55;;;;;;;;;;;;;;;;;;5005608;28;20372;-42
2022/03/26 03:52:21;;;;;;;;;;;;;;;;;;4994070;28;19917;-41
2022/03/26 03:54:48;;;;;;;;;;;;;;;;;;5010858;28;19914;-49
2022/03/26 03:57:14;;;;;;;;;;;;;;;;;;4993971;28;19917;-51
2022/03/26 03:59:43;;;;;;;;;;;;;;;;;;5005328;28;19909;-55
2022/03/26 04:02:10;;;;;;;;;;;;;;;;;;5011208;28;19957;-53
2022/03/26 04:04:36;;;;;;;;;;;;;;;;;;5012153;28;19910;-58
2022/03/26 04:07:03;;;;;;;;;;;;;;;;;;5012094;28;19913;-49
2022/03/26 04:09:31;;;;;;;;;;;;;;;;;;4993095;28;20339;-45
2022/03/26 04:11:57;;;;;;;;;;;;;;;;;;4986253;28;19918;-42
2022/03/26 04:14:24;;;;;;;;;;;;;;;;;;5010851;28;19916;-49
2022/03/26 04:16:50;;;;;;;;;;;;;;;;;;5012861;28;19913;-52
2022/03/26 04:19:18;;;;;;;;;;;;;;;;;;5012029;28;19994;-51
2022/03/26 04:21:44;;;;;;;;;;;;;;;;;;5012029;28;19909;-53
2022/03/26 04:24:11;;;;;;;;;;;;;;;;;;5012699;28;20052;-50
2022/03/26 04:26:37;;;;;;;;;;;;;;;;;;5012390;28;20418;-50
2022/03/26 04:29:04;;;;;;;;;;;;;;;;;;5012889;28;19909;-54
2022/03/26 04:31:30;;;;;;;;;;;;;;;;;;5012073;28;19910;-52
2022/03/26 04:34:01;;;;;;;;;;;;;;;;;;4995006;28;19910;-44
2022/03/26 04:36:27;;;;;;;;;;;;;;;;;;4994657;28;19941;-51
2022/03/26 04:38:54;;;;;;;;;;;;;;;;;;5012247;28;19946;-48
2022/03/26 04:41:20;;;;;;;;;;;;;;;;;;5011462;28;20316;-46
2022/03/26 04:43:47;;;;;;;;;;;;;;;;;;5011528;28;20021;-51
2022/03/26 04:46:13;;;;;;;;;;;;;;;;;;5012070;28;19921;-48
2022/03/26 04:48:40;;;;;;;;;;;;;;;;;;5012537;28;19909;-49
2022/03/26 04:51:06;;;;;;;;;;;;;;;;;;5012429;28;19976;-56
2022/03/26 04:53:33;;;;;;;;;;;;;;;;;;5011937;28;19964;-51
2022/03/26 04:55:59;;;;;;;;;;;;;;;;;;5011699;28;19945;-51
2022/03/26 04:58:26;;;;;;;;;;;;;;;;;;5011096;28;19917;-43
2022/03/26 05:00:52;;;;;;;;;;;;;;;;;;5010552;28;19913;-39
2022/03/26 05:03:19;;;;;;;;;;;;;;;;;;5014043;28;19932;-51
2022/03/26 05:05:45;;;;;;;;;;;;;;;;;;5012627;28;19927;-48
2022/03/26 05:08:12;;;;;;;;;;;;;;;;;;5012192;28;20355;-45
2022/03/26 05:10:38;;;;;;;;;;;;;;;;;;5012614;28;19917;-52
2022/03/26 05:13:05;;;;;;;;;;;;;;;;;;5013615;28;20008;-53
2022/03/26 05:15:31;;;;;;;;;;;;;;;;;;5015480;28;19950;-54
2022/03/26 05:17:58;;;;;;;;;;;;;;;;;;5015494;28;20017;-47
2022/03/26 05:20:25;;;;;;;;;;;;;;;;;;5015861;28;20383;-47
2022/03/26 05:22:51;;;;;;;;;;;;;;;;;;5016093;28;19909;-53
2022/03/26 05:25:18;;;;;;;;;;;;;;;;;;4997880;28;19917;-55
2022/03/26 05:27:44;;;;;;;;;;;;;;;;;;5015534;28;19914;-52
2022/03/26 05:30:11;;;;;;;;;;;;;;;;;;5015690;28;19909;-52
2022/03/26 05:32:37;;;;;;;;;;;;;;;;;;5015574;28;19910;-51
2022/03/26 05:35:06;;;;;;;;;;;;;;;;;;5015207;28;19913;-49
2022/03/26 05:37:33;;;;;;;;;;;;;;;;;;5015093;28;19945;-54
2022/03/26 05:39:59;;;;;;;;;;;;;;;;;;5014716;28;19921;-45
2022/03/26 05:42:26;;;;;;;;;;;;;;;;;;5015277;28;19919;-54
2022/03/26 05:44:52;;;;;;;;;;;;;;;;;;5014748;28;19968;-51
2022/03/26 05:47:19;;;;;;;;;;;;;;;;;;5015145;28;20387;-44
2022/03/26 05:49:45;;;;;;;;;;;;;;;;;;5014951;28;19947;-49
2022/03/26 05:52:12;;;;;;;;;;;;;;;;;;5014544;28;19920;-45
2022/03/26 05:54:38;;;;;;;;;;;;;;;;;;5007368;28;19909;-40
2022/03/26 05:57:05;;;;;;;;;;;;;;;;;;5010706;28;19913;-45
2022/03/26 05:59:31;;;;;;;;;;;;;;;;;;5013339;28;20015;-39
2022/03/26 06:01:58;;;;;;;;;;;;;;;;;;5012492;28;20280;-40
2022/03/26 06:04:24;;;;;;;;;;;;;;;;;;5012313;28;19909;-51
2022/03/26 06:06:51;;;;;;;;;;;;;;;;;;5010278;28;19944;-55
2022/03/26 06:09:17;;;;;;;;;;;;;;;;;;4994867;28;19920;-50
2022/03/26 06:11:44;;;;;;;;;;;;;;;;;;5011325;28;19909;-51
2022/03/26 06:14:10;;;;;;;;;;;;;;;;;;5015086;28;19910;-51
2022/03/26 06:16:37;;;;;;;;;;;;;;;;;;5014208;28;19963;-54
2022/03/26 06:19:03;;;;;;;;;;;;;;;;;;5014394;28;19988;-55
2022/03/26 06:21:30;;;;;;;;;;;;;;;;;;5014841;28;19932;-54
2022/03/26 06:23:58;;;;;;;;;;;;;;;;;;5014782;28;19932;-56
2022/03/26 06:26:25;;;;;;;;;;;;;;;;;;5014619;28;19924;-45
2022/03/26 06:28:52;;;;;;;;;;;;;;;;;;5014347;28;19916;-51
2022/03/26 06:31:18;;;;;;;;;;;;;;;;;;5014550;28;19909;-45
2022/03/26 06:33:45;;;;;;;;;;;;;;;;;;5008151;28;19921;-42
2022/03/26 06:36:13;;;;;;;;;;;;;;;;;;5011800;28;19914;-42
2022/03/26 06:38:41;;;;;;;;;;;;;;;;;;5011888;28;19937;-38
2022/03/26 06:41:07;;;;;;;;;;;;;;;;;;5012211;28;19910;-39
2022/03/26 06:43:34;;;;;;;;;;;;;;;;;;5010617;28;19913;-44
2022/03/26 06:46:01;;;;;;;;;;;;;;;;;;5012200;28;19924;-48
2022/03/26 06:48:27;;;;;;;;;;;;;;;;;;5013667;28;19979;-43
2022/03/26 06:50:53;;;;;;;;;;;;;;;;;;5014513;28;20352;-51
2022/03/26 06:53:20;;;;;;;;;;;;;;;;;;5014322;28;20373;-54
2022/03/26 06:55:46;;;;;;;;;;;;;;;;;;5013738;28;19910;-54
2022/03/26 06:58:13;;;;;;;;;;;;;;;;;;5013518;28;19985;-53
2022/03/26 07:00:39;;;;;;;;;;;;;;;;;;5014241;28;19914;-42
2022/03/26 07:03:06;;;;;;;;;;;;;;;;;;5014120;28;19913;-45
2022/03/26 07:05:32;;;;;;;;;;;;;;;;;;5013106;28;19943;-40
2022/03/26 07:07:59;;;;;;;;;;;;;;;;;;5014337;28;19916;-40
2022/03/26 07:10:25;;;;;;;;;;;;;;;;;;5013972;28;20017;-44
2022/03/26 07:12:52;;;;;;;;;;;;;;;;;;5013191;28;19909;-50
2022/03/26 07:15:18;;;;;;;;;;;;;;;;;;5013913;28;19982;-47
2022/03/26 07:17:44;;;;;;;;;;;;;;;;;;5013101;28;19909;-53
2022/03/26 07:20:11;;;;;;;;;;;;;;;;;;5013625;28;19913;-59
2022/03/26 07:22:38;;;;;;;;;;;;;;;;;;5013531;28;19910;-54
2022/03/26 07:25:04;;;;;;;;;;;;;;;;;;5013277;28;20004;-58
2022/03/26 07:27:31;;;;;;;;;;;;;;;;;;5005977;28;20410;-54
2022/03/26 07:29:57;;;;;;;;;;;;;;;;;;5011222;28;20430;-45
2022/03/26 07:32:25;;;;;;;;;;;;;;;;;;5010647;28;19956;-42
2022/03/26 07:34:52;;;;;;;;;;;;;;;;;;5011803;28;19909;-46
2022/03/26 07:37:18;;;;;;;;;;;;;;;;;;5011111;28;19917;-43
2022/03/26 07:39:45;;;;;;;;;;;;;;;;;;5010729;28;20373;-42
2022/03/26 07:42:11;;;;;;;;;;;;;;;;;;4991024;28;19983;-42
2022/03/26 07:44:38;;;;;;;;;;;;;;;;;;5011656;28;20331;-41
2022/03/26 07:47:04;;;;;;;;;;;;;;;;;;5010720;28;19992;-45
2022/03/26 07:49:30;;;;;;;;;;;;;;;;;;5010902;28;20348;-48
2022/03/26 07:51:57;;;;;;;;;;;;;;;;;;5011005;28;19917;-47
2022/03/26 07:54:23;;;;;;;;;;;;;;;;;;5009233;28;19920;-42
2022/03/26 07:56:50;;;;;;;;;;;;;;;;;;5010632;28;20262;-43
2022/03/26 07:59:16;;;;;;;;;;;;;;;;;;5011219;28;19909;-43
2022/03/26 08:01:43;;;;;;;;;;;;;;;;;;5011036;28;19910;-45
2022/03/26 08:04:09;;;;;;;;;;;;;;;;;;5006151;28;20395;-41
2022/03/26 08:06:36;;;;;;;;;;;;;;;;;;5010900;28;19968;-44
2022/03/26 08:09:02;;;;;;;;;;;;;;;;;;5011080;28;19913;-41
2022/03/26 08:11:29;;;;;;;;;;;;;;;;;;5010430;28;19910;-47
2022/03/26 08:13:55;;;;;;;;;;;;;;;;;;5005463;28;20009;-43
2022/03/26 08:16:22;;;;;;;;;;;;;;;;;;5010509;28;19913;-46
2022/03/26 08:18:48;;;;;;;;;;;;;;;;;;5010906;28;20036;-43
2022/03/26 08:21:15;;;;;;;;;;;;;;;;;;5010679;28;19909;-42
2022/03/26 08:23:41;;;;;;;;;;;;;;;;;;5004415;28;20521;-41
2022/03/26 08:26:22;;;;;;;;;;;;;;;;;;5010931;28;19925;-42
2022/03/26 08:28:48;;;;;;;;;;;;;;;;;;5010324;28;19918;-43
2022/03/26 08:31:15;;;;;;;;;;;;;;;;;;5010447;28;19992;-47
2022/03/26 08:33:41;;;;;;;;;;;;;;;;;;5007820;28;19953;-43
2022/03/26 08:36:08;;;;;;;;;;;;;;;;;;5017886;28;19909;-44
2022/03/26 08:38:34;;;;;;;;;;;;;;;;;;5016782;28;19932;-41
2022/03/26 08:41:01;;;;;;;;;;;;;;;;;;5017449;28;19910;-42
2022/03/26 08:43:28;;;;;;;;;;;;;;;;;;5011788;28;20005;-39
2022/03/26 08:45:54;;;;;;;;;;;;;;;;;;5015445;28;19968;-41
2022/03/26 08:48:20;;;;;;;;;;;;;;;;;;5015952;28;19939;-44
2022/03/26 08:50:47;;;;;;;;;;;;;;;;;;5016741;28;19909;-41
2022/03/26 08:53:14;;;;;;;;;;;;;;;;;;5010376;28;20434;-43
2022/03/26 08:55:40;;;;;;;;;;;;;;;;;;4998970;28;20328;-40
2022/03/26 08:58:10;;;;;;;;;;;;;;;;;;5016684;28;19909;-46
2022/03/26 09:00:37;;;;;;;;;;;;;;;;;;5015298;28;20380;-41
2022/03/26 09:03:03;;;;;;;;;;;;;;;;;;5011379;28;20304;-43
2022/03/26 09:05:30;;;;;;;;;;;;;;;;;;5017144;28;19918;-42
2022/03/26 09:07:56;;;;;;;;;;;;;;;;;;5014599;28;19936;-41
2022/03/26 09:10:23;;;;;;;;;;;;;;;;;;4999235;28;19924;-48
2022/03/26 09:12:49;;;;;;;;;;;;;;;;;;5011207;28;19976;-49
2022/03/26 09:15:16;;;;;;;;;;;;;;;;;;5015045;28;19925;-43
2022/03/26 09:17:42;;;;;;;;;;;;;;;;;;5015950;28;19941;-43
2022/03/26 09:20:09;;;;;;;;;;;;;;;;;;5017130;28;19917;-41
2022/03/26 09:22:35;;;;;;;;;;;;;;;;;;5009313;28;20243;-43
2022/03/26 09:25:02;;;;;;;;;;;;;;;;;;5017338;28;19968;-43
2022/03/26 09:27:28;;;;;;;;;;;;;;;;;;5015730;28;19909;-44
2022/03/26 09:29:55;;;;;;;;;;;;;;;;;;5015740;28;19963;-43
2022/03/26 09:32:22;;;;;;;;;;;;;;;;;;4994880;28;19917;-56
2022/03/26 09:34:48;;;;;;;;;;;;;;;;;;5017102;28;19910;-45
2022/03/26 09:37:15;;;;;;;;;;;;;;;;;;5014079;28;19925;-50
2022/03/26 09:39:41;;;;;;;;;;;;;;;;;;5016438;28;19922;-49
2022/03/26 09:42:08;;;;;;;;;;;;;;;;;;5014526;28;19916;-41
2022/03/26 09:44:35;;;;;;;;;;;;;;;;;;5012498;28;19996;-41
2022/03/26 09:47:03;;;;;;;;;;;;;;;;;;5012785;28;19918;-47
2022/03/26 09:49:30;;;;;;;;;;;;;;;;;;5013689;28;19910;-44
2022/03/26 09:51:57;;;;;;;;;;;;;;;;;;5013894;28;19913;-43
2022/03/26 09:54:23;;;;;;;;;;;;;;;;;;5008566;28;19909;-46
2022/03/26 09:56:50;;;;;;;;;;;;;;;;;;5013230;28;20288;-40
2022/03/26 09:59:17;;;;;;;;;;;;;;;;;;5013970;28;19914;-41
2022/03/26 10:01:44;;;;;;;;;;;;;;;;;;5013518;28;19944;-40
2022/03/26 10:04:10;;;;;;;;;;;;;;;;;;5008149;28;19910;-41
2022/03/26 10:06:37;;;;;;;;;;;;;;;;;;4995849;28;19918;-43
2022/03/26 10:09:03;;;;;;;;;;;;;;;;;;5012482;28;20639;-45
2022/03/26 10:11:30;;;;;;;;;;;;;;;;;;5013566;28;19932;-43
2022/03/26 10:13:56;;;;;;;;;;;;;;;;;;5007592;28;19928;-43
2022/03/26 10:16:23;;;;;;;;;;;;;;;;;;5013622;28;20025;-52
2022/03/26 10:18:50;;;;;;;;;;;;;;;;;;5013067;28;19910;-42
2022/03/26 10:21:17;;;;;;;;;;;;;;;;;;5013638;28;19910;-44
2022/03/26 10:23:43;;;;;;;;;;;;;;;;;;5007500;28;19916;-48
2022/03/26 10:26:10;;;;;;;;;;;;;;;;;;5013237;28;19918;-41
2022/03/26 10:28:36;;;;;;;;;;;;;;;;;;5012513;28;19909;-41
2022/03/26 10:33:53;;;;;;;;;;;;;;;;;;4978599;28;20292;-45
2022/03/26 10:36:20;;;;;;;;;;;;;;;;;;5013012;28;19982;-46
2022/03/26 10:38:46;;;;;;;;;;;;;;;;;;5011940;28;20011;-43
2022/03/26 10:41:12;;;;;;;;;;;;;;;;;;5013019;28;19929;-42
2022/03/26 10:43:39;;;;;;;;;;;;;;;;;;5007467;28;19916;-46
2022/03/26 10:46:07;;;;;;;;;;;;;;;;;;5012456;28;20012;-44
2022/03/26 10:48:33;;;;;;;;;;;;;;;;;;5012299;28;19918;-53
2022/03/26 10:51:00;;;;;;;;;;;;;;;;;;5012964;28;20012;-49
2022/03/26 10:53:26;;;;;;;;;;;;;;;;;;5007538;28;19920;-56
2022/03/26 10:55:53;;;;;;;;;;;;;;;;;;5011789;28;19926;-45
2022/03/26 10:58:20;;;;;;;;;;;;;;;;;;4993990;28;19917;-47
2022/03/26 11:00:47;;;;;;;;;;;;;;;;;;5012675;28;19918;-43
2022/03/26 11:03:14;;;;;;;;;;;;;;;;;;5007790;28;19909;-46
2022/03/26 11:05:40;;;;;;;;;;;;;;;;;;5012295;28;19918;-50
2022/03/26 11:08:06;;;;;;;;;;;;;;;;;;5011823;28;19985;-47
2022/03/26 11:10:33;;;;;;;;;;;;;;;;;;5012799;28;19964;-42
2022/03/26 11:13:00;;;;;;;;;;;;;;;;;;5007190;28;19909;-43
2022/03/26 11:15:27;;;;;;;;;;;;;;;;;;5011933;28;20292;-51
2022/03/26 11:17:53;;;;;;;;;;;;;;;;;;5011845;28;19971;-46
2022/03/26 11:20:21;;;;;;;;;;;;;;;;;;5012700;28;19909;-46
2022/03/26 11:22:48;;;;;;;;;;;;;;;;;;5006910;28;19987;-44
2022/03/26 11:25:14;;;;;;;;;;;;;;;;;;5012460;28;20249;-52
2022/03/26 11:27:41;;;;;;;;;;;;;;;;;;5011059;28;20295;-45
2022/03/26 11:30:07;;;;;;;;;;;;;;;;;;5012912;28;19956;-47
2022/03/26 11:32:34;;;;;;;;;;;;;;;;;;5007693;28;20116;-43
2022/03/26 11:35:00;;;;;;;;;;;;;;;;;;5012356;28;19916;-49
2022/03/26 11:37:27;;;;;;;;;;;;;;;;;;4993321;28;19910;-55
2022/03/26 11:39:53;;;;;;;;;;;;;;;;;;5011928;28;19951;-45
2022/03/26 11:42:20;;;;;;;;;;;;;;;;;;5009614;28;20360;-54
2022/03/26 11:50:41;;;;;;;;;;;;;;;;;;5009402;28;19914;-55
2022/03/26 11:53:02;;;;;;;;;;;;;;;;;;5007127;28;19917;-44
2022/03/26 11:55:29;;;;;;;;;;;;;;;;;;5011926;28;19917;-41
2022/03/26 11:57:56;;;;;;;;;;;;;;;;;;5010606;28;19914;-42
2022/03/26 12:00:22;;;;;;;;;;;;;;;;;;5012093;28;19949;-41
2022/03/26 12:02:51;;;;;;;;;;;;;;;;;;5006364;28;19914;-39
2022/03/26 12:08:03;;;;;;;;;;;;;;;;;;5007705;28;20288;-45
2022/03/26 12:10:29;;;;;;;;;;;;;;;;;;5011372;28;19933;-48
2022/03/26 12:12:55;;;;;;;;;;;;;;;;;;5006008;28;19924;-48
2022/03/26 12:15:22;;;;;;;;;;;;;;;;;;5012350;28;19948;-42
2022/03/26 12:17:48;;;;;;;;;;;;;;;;;;5010166;28;19956;-44
2022/03/26 12:20:15;;;;;;;;;;;;;;;;;;5012145;28;19996;-42
2022/03/26 12:22:41;;;;;;;;;;;;;;;;;;5006326;28;19909;-45
2022/03/26 12:25:08;;;;;;;;;;;;;;;;;;5011443;28;19917;-44
2022/03/26 12:27:34;;;;;;;;;;;;;;;;;;5010277;28;20344;-48
2022/03/26 12:30:01;;;;;;;;;;;;;;;;;;5011204;28;20467;-45
2022/03/26 12:32:27;;;;;;;;;;;;;;;;;;5008871;28;19918;-41
2022/03/26 12:34:54;;;;;;;;;;;;;;;;;;5009988;28;20386;-44
2022/03/26 12:37:20;;;;;;;;;;;;;;;;;;5010697;28;19917;-41
2022/03/26 12:39:47;;;;;;;;;;;;;;;;;;5010118;28;20383;-44
2022/03/26 12:42:13;;;;;;;;;;;;;;;;;;5012173;28;19925;-55
2022/03/26 12:44:40;;;;;;;;;;;;;;;;;;5004436;28;20294;-39
2022/03/26 12:47:06;;;;;;;;;;;;;;;;;;5011025;28;20242;-42
2022/03/26 12:49:33;;;;;;;;;;;;;;;;;;5010108;28;20276;-49
2022/03/26 12:51:59;;;;;;;;;;;;;;;;;;5010484;28;19910;-58
2022/03/26 12:54:26;;;;;;;;;;;;;;;;;;5011837;28;19913;-55
2022/03/26 12:56:52;;;;;;;;;;;;;;;;;;5011524;28;19910;-55
2022/03/26 12:59:19;;;;;;;;;;;;;;;;;;5012755;28;19910;-60
2022/03/26 13:01:45;;;;;;;;;;;;;;;;;;5012424;28;19910;-52
2022/03/26 13:04:11;;;;;;;;;;;;;;;;;;5012996;28;19964;-46
2022/03/26 13:06:38;;;;;;;;;;;;;;;;;;4994790;28;20021;-54
2022/03/26 13:09:06;;;;;;;;;;;;;;;;;;5011401;28;20356;-51
2022/03/26 13:11:33;;;;;;;;;;;;;;;;;;5012141;28;19909;-52
2022/03/26 13:13:59;;;;;;;;;;;;;;;;;;5012342;28;19909;-54
2022/03/26 13:16:26;;;;;;;;;;;;;;;;;;5006377;28;19917;-47
2022/03/26 13:18:53;;;;;;;;;;;;;;;;;;5009345;28;20269;-53
2022/03/26 13:21:20;;;;;;;;;;;;;;;;;;5009382;28;20056;-55
2022/03/26 13:23:46;;;;;;;;;;;;;;;;;;5012721;28;19914;-59
2022/03/26 13:26:13;;;;;;;;;;;;;;;;;;4992247;28;19918;-62
2022/03/26 13:28:39;;;;;;;;;;;;;;;;;;5014146;28;19914;-57
2022/03/26 13:31:06;;;;;;;;;;;;;;;;;;5010617;28;20855;-58
2022/03/26 13:33:32;;;;;;;;;;;;;;;;;;5013173;28;19953;-59
2022/03/26 13:35:59;;;;;;;;;;;;;;;;;;5010611;28;19917;-60
2022/03/26 13:38:26;;;;;;;;;;;;;;;;;;5013679;28;19929;-57
2022/03/26 13:40:53;;;;;;;;;;;;;;;;;;5011447;28;20017;-58
2022/03/26 13:43:19;;;;;;;;;;;;;;;;;;5014250;28;20372;-51
2022/03/26 13:45:46;;;;;;;;;;;;;;;;;;5011163;28;20430;-52
2022/03/26 13:48:12;;;;;;;;;;;;;;;;;;5011249;28;19920;-59
2022/03/26 13:50:39;;;;;;;;;;;;;;;;;;5012902;28;19964;-50
2022/03/26 13:53:05;;;;;;;;;;;;;;;;;;5010740;28;19979;-45
2022/03/26 13:55:32;;;;;;;;;;;;;;;;;;5015249;28;20272;-52
2022/03/26 13:57:59;;;;;;;;;;;;;;;;;;5008727;28;19910;-59
2022/03/26 14:00:26;;;;;;;;;;;;;;;;;;5015375;28;19940;-59
2022/03/26 14:02:52;;;;;;;;;;;;;;;;;;4990719;28;19909;-45
2022/03/26 14:05:19;;;;;;;;;;;;;;;;;;5014964;28;19921;-58
2022/03/26 14:07:45;;;;;;;;;;;;;;;;;;5006886;28;19913;-59
2022/03/26 14:10:12;;;;;;;;;;;;;;;;;;5014345;28;20016;-60
2022/03/26 14:12:38;;;;;;;;;;;;;;;;;;5008277;28;19949;-42
2022/03/26 14:15:05;;;;;;;;;;;;;;;;;;5014861;28;19914;-57
2022/03/26 14:17:31;;;;;;;;;;;;;;;;;;5007567;28;19916;-41
2022/03/26 14:19:58;;;;;;;;;;;;;;;;;;5002229;28;19921;-59
2022/03/26 14:22:24;;;;;;;;;;;;;;;;;;5002978;28;19963;-61
2022/03/26 14:24:51;;;;;;;;;;;;;;;;;;5013318;28;19921;-60
2022/03/26 14:27:17;;;;;;;;;;;;;;;;;;5008250;28;19909;-42
2022/03/26 14:29:43;;;;;;;;;;;;;;;;;;5014090;28;19951;-63
2022/03/26 14:32:10;;;;;;;;;;;;;;;;;;5007159;28;19916;-47
2022/03/26 14:34:36;;;;;;;;;;;;;;;;;;5013833;28;19917;-51
2022/03/26 14:37:03;;;;;;;;;;;;;;;;;;5006678;28;19914;-59
2022/03/26 14:39:29;;;;;;;;;;;;;;;;;;5013514;28;19921;-60
2022/03/26 14:41:56;;;;;;;;;;;;;;;;;;5007935;28;19913;-43
2022/03/26 14:44:22;;;;;;;;;;;;;;;;;;5013852;28;19916;-58
2022/03/26 14:46:49;;;;;;;;;;;;;;;;;;5008113;28;19921;-58
2022/03/26 14:49:15;;;;;;;;;;;;;;;;;;5013157;28;19909;-55
2022/03/26 14:51:42;;;;;;;;;;;;;;;;;;5007254;28;19949;-58
2022/03/26 14:54:08;;;;;;;;;;;;;;;;;;5010776;28;19916;-58
2022/03/26 14:56:36;;;;;;;;;;;;;;;;;;5007320;28;20052;-40
2022/03/26 14:59:02;;;;;;;;;;;;;;;;;;5013076;28;19909;-57
2022/03/26 15:01:29;;;;;;;;;;;;;;;;;;5013362;28;19957;-57
2022/03/26 15:03:58;;;;;;;;;;;;;;;;;;5012687;28;20338;-57
2022/03/26 15:06:24;;;;;;;;;;;;;;;;;;5014414;28;19918;-56
2022/03/26 15:08:51;;;;;;;;;;;;;;;;;;5014649;28;19944;-55
2022/03/26 15:11:17;;;;;;;;;;;;;;;;;;5014512;28;19909;-56
2022/03/26 15:13:44;;;;;;;;;;;;;;;;;;5014151;28;20356;-58
2022/03/26 15:16:10;;;;;;;;;;;;;;;;;;5014439;28;20331;-57
2022/03/26 15:18:37;;;;;;;;;;;;;;;;;;5014772;28;20006;-56
2022/03/26 15:21:04;;;;;;;;;;;;;;;;;;5014140;28;19921;-55
2022/03/26 15:23:31;;;;;;;;;;;;;;;;;;5014159;28;20353;-59
2022/03/26 15:25:57;;;;;;;;;;;;;;;;;;5013626;28;19921;-57
2022/03/26 15:28:24;;;;;;;;;;;;;;;;;;5013864;28;19909;-59
2022/03/26 15:30:50;;;;;;;;;;;;;;;;;;5014256;28;19975;-58
2022/03/26 15:33:17;;;;;;;;;;;;;;;;;;5014124;28;19916;-56
2022/03/26 15:35:43;;;;;;;;;;;;;;;;;;5013918;28;20402;-58
2022/03/26 15:38:10;;;;;;;;;;;;;;;;;;5014121;28;19916;-52
2022/03/26 15:40:36;;;;;;;;;;;;;;;;;;5014111;28;20007;-58
2022/03/26 15:43:03;;;;;;;;;;;;;;;;;;5013836;28;19916;-58
2022/03/26 15:45:30;;;;;;;;;;;;;;;;;;5013987;28;20012;-57
2022/03/26 15:47:56;;;;;;;;;;;;;;;;;;5014002;28;19914;-57
2022/03/26 15:50:23;;;;;;;;;;;;;;;;;;5013874;28;19948;-56
2022/03/26 15:52:49;;;;;;;;;;;;;;;;;;5013442;28;19917;-52
2022/03/26 15:55:17;;;;;;;;;;;;;;;;;;5013671;28;19981;-57
2022/03/26 15:57:43;;;;;;;;;;;;;;;;;;5013686;28;19909;-53
2022/03/26 16:00:11;;;;;;;;;;;;;;;;;;4996262;28;19917;-54
2022/03/26 16:02:37;;;;;;;;;;;;;;;;;;4996033;28;19972;-57
2022/03/26 16:05:04;;;;;;;;;;;;;;;;;;5013544;28;19956;-58
2022/03/26 16:07:30;;;;;;;;;;;;;;;;;;5013230;28;20368;-58
2022/03/26 16:09:59;;;;;;;;;;;;;;;;;;5013855;28;19917;-53
2022/03/26 16:12:26;;;;;;;;;;;;;;;;;;5013355;28;19917;-58
2022/03/26 16:14:52;;;;;;;;;;;;;;;;;;5013770;28;19924;-59
2022/03/26 16:17:19;;;;;;;;;;;;;;;;;;5013509;28;19916;-55
2022/03/26 16:19:45;;;;;;;;;;;;;;;;;;5013014;28;19910;-53
2022/03/26 16:22:12;;;;;;;;;;;;;;;;;;5013394;28;19937;-48
2022/03/26 16:24:38;;;;;;;;;;;;;;;;;;5013518;28;19917;-51
2022/03/26 16:27:05;;;;;;;;;;;;;;;;;;5013363;28;20349;-51
2022/03/26 16:29:31;;;;;;;;;;;;;;;;;;5013184;28;19917;-49
2022/03/26 16:31:58;;;;;;;;;;;;;;;;;;5013441;28;20344;-54
2022/03/26 16:34:24;;;;;;;;;;;;;;;;;;5013342;28;19913;-56
2022/03/26 16:36:50;;;;;;;;;;;;;;;;;;5013219;28;19905;-57
2022/03/26 16:39:17;;;;;;;;;;;;;;;;;;5012918;28;19922;-56
2022/03/26 16:41:43;;;;;;;;;;;;;;;;;;5012678;28;19996;-58
2022/03/26 16:44:10;;;;;;;;;;;;;;;;;;5013194;28;19909;-54
2022/03/26 16:46:39;;;;;;;;;;;;;;;;;;5013074;28;19961;-52
2022/03/26 16:49:07;;;;;;;;;;;;;;;;;;5013102;28;20325;-45
2022/03/26 16:51:34;;;;;;;;;;;;;;;;;;5012792;28;19916;-50